createdAt,value
2023-06-19T00:00:39.108Z,8.30
2023-06-19T00:01:39.070Z,8.20
2023-06-19T00:02:39.031Z,9.60
2023-06-19T00:03:39.136Z,9.10
2023-06-19T00:04:38.821Z,9.10
2023-06-19T00:05:38.737Z,8.30
2023-06-19T00:06:38.704Z,8.50
2023-06-19T00:07:38.638Z,8.80
2023-06-19T00:08:38.534Z,8.50
2023-06-19T00:09:38.624Z,8.50
2023-06-19T00:10:38.488Z,9.40
2023-06-19T00:11:38.355Z,9.20
2023-06-19T00:12:38.328Z,8.50
2023-06-19T00:13:38.267Z,8.60
2023-06-19T00:14:38.264Z,8.90
2023-06-19T00:15:38.111Z,8.20
2023-06-19T00:16:38.173Z,8.70
2023-06-19T00:17:38.064Z,8.70
2023-06-19T00:18:37.953Z,8.30
2023-06-19T00:19:37.870Z,8.40
2023-06-19T00:20:37.812Z,8.40
2023-06-19T00:21:37.789Z,8.50
2023-06-19T00:22:37.707Z,8.10
2023-06-19T00:23:37.612Z,7.80
2023-06-19T00:24:37.696Z,8.60
2023-06-19T00:25:37.455Z,8.90
2023-06-19T00:26:37.604Z,8.60
2023-06-19T00:27:37.383Z,8.80
2023-06-19T00:28:37.356Z,8.50
2023-06-19T00:29:37.296Z,8.70
2023-06-19T00:30:37.169Z,9.10
2023-06-19T00:31:37.104Z,9.30
2023-06-19T00:32:37.189Z,8.30
2023-06-19T00:33:37.027Z,8.70
2023-06-19T00:34:36.945Z,9.30
2023-06-19T00:35:36.884Z,9.00
2023-06-19T00:36:36.865Z,7.90
2023-06-19T00:37:36.822Z,8.30
2023-06-19T00:38:36.704Z,8.60
2023-06-19T00:39:36.603Z,9.20
2023-06-19T00:40:36.573Z,8.70
2023-06-19T00:41:36.515Z,8.70
2023-06-19T00:42:36.524Z,7.90
2023-06-19T00:43:36.387Z,9.10
2023-06-19T00:44:36.305Z,8.80
2023-06-19T00:45:36.288Z,8.90
2023-06-19T00:46:36.203Z,9.30
2023-06-19T00:47:36.171Z,8.70
2023-06-19T00:48:36.365Z,8.70
2023-06-19T00:49:36.005Z,9.40
2023-06-19T00:50:35.995Z,9.00
2023-06-19T00:51:35.893Z,9.00
2023-06-19T00:52:35.796Z,9.30
2023-06-19T00:53:35.940Z,9.70
2023-06-19T00:54:35.680Z,8.80
2023-06-19T00:55:35.673Z,9.00
2023-06-19T00:56:35.551Z,8.90
2023-06-19T00:57:35.516Z,9.60
2023-06-19T00:58:35.425Z,9.10
2023-06-19T00:59:35.425Z,9.70
2023-06-19T01:00:35.338Z,9.10
2023-06-19T01:01:35.455Z,9.00
2023-06-19T01:02:35.255Z,9.10
2023-06-19T01:03:35.250Z,9.80
2023-06-19T01:04:35.121Z,9.40
2023-06-19T01:05:35.049Z,10.20
2023-06-19T01:06:34.917Z,9.20
2023-06-19T01:07:34.993Z,9.40
2023-06-19T01:08:34.797Z,8.90
2023-06-19T01:09:34.826Z,9.30
2023-06-19T01:10:34.712Z,8.80
2023-06-19T01:11:34.689Z,9.60
2023-06-19T01:12:34.614Z,9.00
2023-06-19T01:13:34.555Z,9.30
2023-06-19T01:14:34.490Z,9.00
2023-06-19T01:15:34.376Z,9.70
2023-06-19T01:16:34.481Z,10.20
2023-06-19T01:17:34.449Z,9.70
2023-06-19T01:18:34.170Z,9.30
2023-06-19T01:19:34.144Z,9.30
2023-06-19T01:20:34.084Z,9.50
2023-06-19T01:21:34.044Z,9.20
2023-06-19T01:22:34.042Z,9.60
2023-06-19T01:23:33.847Z,9.60
2023-06-19T01:24:33.898Z,9.60
2023-06-19T01:25:33.828Z,9.60
2023-06-19T01:26:33.744Z,9.60
2023-06-19T01:27:33.642Z,10.30
2023-06-19T01:28:33.753Z,9.90
2023-06-19T01:29:33.523Z,11.00
2023-06-19T01:30:33.464Z,9.90
2023-06-19T01:31:33.445Z,9.90
2023-06-19T01:32:33.503Z,9.80
2023-06-19T01:33:33.313Z,10.40
2023-06-19T01:34:33.244Z,9.50
2023-06-19T01:35:33.194Z,9.80
2023-06-19T01:36:33.055Z,10.90
2023-06-19T01:37:33.039Z,10.00
2023-06-19T01:38:33.003Z,10.00
2023-06-19T01:39:33.822Z,10.30
2023-06-19T01:40:32.952Z,11.20
2023-06-19T01:41:32.791Z,9.70
2023-06-19T01:42:32.715Z,9.60
2023-06-19T01:43:32.658Z,10.20
2023-06-19T01:44:32.604Z,9.70
2023-06-19T01:45:32.532Z,9.90
2023-06-19T01:46:32.463Z,9.90
2023-06-19T01:47:32.458Z,9.50
2023-06-19T01:48:32.320Z,10.50
2023-06-19T01:49:32.243Z,11.20
2023-06-19T01:50:32.220Z,9.90
2023-06-19T01:51:32.201Z,10.30
2023-06-19T01:52:32.135Z,11.00
2023-06-19T01:53:32.002Z,10.10
2023-06-19T01:54:31.935Z,9.40
2023-06-19T01:55:31.910Z,9.20
2023-06-19T01:56:31.871Z,8.90
2023-06-19T01:57:31.852Z,9.80
2023-06-19T01:58:32.301Z,9.40
2023-06-19T01:59:31.665Z,9.90
2023-06-19T02:00:31.552Z,9.10
2023-06-19T02:01:31.572Z,9.40
2023-06-19T02:02:31.560Z,9.70
2023-06-19T02:03:31.444Z,9.90
2023-06-19T02:04:31.487Z,9.30
2023-06-19T02:05:31.291Z,10.00
2023-06-19T02:06:31.221Z,9.80
2023-06-19T02:07:31.152Z,10.20
2023-06-19T02:08:31.161Z,9.40
2023-06-19T02:09:31.129Z,9.70
2023-06-19T02:10:30.959Z,10.00
2023-06-19T02:11:30.899Z,9.50
2023-06-19T02:12:30.876Z,10.40
2023-06-19T02:13:30.815Z,10.00
2023-06-19T02:14:30.714Z,10.30
2023-06-19T02:15:30.641Z,10.60
2023-06-19T02:16:30.801Z,10.60
2023-06-19T02:17:30.575Z,10.10
2023-06-19T02:18:30.498Z,10.60
2023-06-19T02:19:30.404Z,10.00
2023-06-19T02:20:30.331Z,9.80
2023-06-19T02:21:30.282Z,11.00
2023-06-19T02:22:30.257Z,10.70
2023-06-19T02:23:30.173Z,9.80
2023-06-19T02:24:30.070Z,9.90
2023-06-19T02:25:32.405Z,9.90
2023-06-19T02:26:29.977Z,9.40
2023-06-19T02:27:29.894Z,9.50
2023-06-19T02:28:29.975Z,10.80
2023-06-19T02:29:29.764Z,10.50
2023-06-19T02:30:29.704Z,10.00
2023-06-19T02:31:29.621Z,9.30
2023-06-19T02:32:29.633Z,9.90
2023-06-19T02:33:29.511Z,10.50
2023-06-19T02:34:29.610Z,10.50
2023-06-19T02:35:29.396Z,9.30
2023-06-19T02:36:29.363Z,9.50
2023-06-19T02:37:29.303Z,10.50
2023-06-19T02:38:29.206Z,10.50
2023-06-19T02:39:29.154Z,10.40
2023-06-19T02:40:29.106Z,10.70
2023-06-19T02:41:29.026Z,9.90
2023-06-19T02:42:28.987Z,10.00
2023-06-19T02:43:28.895Z,10.40
2023-06-19T02:44:28.831Z,10.70
2023-06-19T02:45:28.910Z,10.30
2023-06-19T02:46:28.796Z,10.00
2023-06-19T02:47:28.628Z,10.30
2023-06-19T02:48:28.624Z,10.70
2023-06-19T02:49:28.490Z,10.50
2023-06-19T02:50:28.502Z,10.00
2023-06-19T02:51:28.399Z,10.60
2023-06-19T02:52:28.369Z,10.20
2023-06-19T02:53:28.810Z,10.30
2023-06-19T02:54:28.180Z,9.70
2023-06-19T02:55:28.119Z,10.20
2023-06-19T02:56:28.097Z,9.70
2023-06-19T02:57:28.022Z,8.90
2023-06-19T02:58:27.947Z,10.60
2023-06-19T02:59:27.902Z,10.00
2023-06-19T03:00:27.881Z,10.40
2023-06-19T03:01:27.764Z,10.30
2023-06-19T03:02:27.790Z,9.80
2023-06-19T03:03:27.780Z,10.60
2023-06-19T03:04:29.377Z,10.80
2023-06-19T03:05:27.494Z,10.20
2023-06-19T03:06:27.424Z,9.80
2023-06-19T03:07:27.387Z,10.00
2023-06-19T03:08:27.296Z,9.90
2023-06-19T03:09:27.349Z,10.10
2023-06-19T03:10:27.437Z,9.30
2023-06-19T03:11:27.298Z,9.70
2023-06-19T03:12:27.114Z,9.80
2023-06-19T03:13:26.984Z,10.20
2023-06-19T03:14:26.983Z,10.30
2023-06-19T03:15:26.966Z,9.80
2023-06-19T03:16:26.915Z,10.00
2023-06-19T03:17:26.833Z,9.60
2023-06-19T03:18:26.705Z,9.90
2023-06-19T03:19:26.650Z,9.90
2023-06-19T03:20:26.933Z,10.30
2023-06-19T03:21:26.530Z,9.90
2023-06-19T03:22:26.569Z,9.70
2023-06-19T03:23:26.339Z,10.40
2023-06-19T03:24:26.369Z,9.60
2023-06-19T03:25:26.236Z,9.70
2023-06-19T03:26:26.243Z,10.10
2023-06-19T03:27:26.148Z,9.70
2023-06-19T03:28:26.137Z,10.10
2023-06-19T03:29:26.031Z,10.00
2023-06-19T03:30:26.190Z,9.40
2023-06-19T03:31:25.895Z,9.30
2023-06-19T03:32:25.820Z,10.20
2023-06-19T03:33:25.963Z,9.30
2023-06-19T03:34:25.706Z,9.30
2023-06-19T03:35:25.635Z,10.00
2023-06-19T03:36:25.587Z,9.90
2023-06-19T03:37:25.521Z,10.40
2023-06-19T03:38:25.586Z,10.10
2023-06-19T03:39:25.352Z,10.10
2023-06-19T03:40:25.542Z,10.50
2023-06-19T03:41:25.240Z,9.80
2023-06-19T03:42:25.217Z,9.50
2023-06-19T03:43:25.138Z,10.10
2023-06-19T03:44:25.078Z,9.80
2023-06-19T03:45:25.012Z,10.80
2023-06-19T03:46:24.980Z,10.60
2023-06-19T03:47:24.992Z,10.70
2023-06-19T03:48:24.809Z,10.30
2023-06-19T03:49:24.808Z,10.70
2023-06-19T03:50:27.147Z,10.50
2023-06-19T03:51:24.625Z,10.30
2023-06-19T03:52:24.590Z,10.30
2023-06-19T03:53:24.526Z,10.40
2023-06-19T03:54:24.453Z,10.60
2023-06-19T03:55:24.431Z,11.00
2023-06-19T03:56:24.330Z,10.30
2023-06-19T03:57:24.266Z,11.00
2023-06-19T03:58:24.263Z,9.70
2023-06-19T03:59:24.114Z,11.10
2023-06-19T04:00:24.430Z,10.70
2023-06-19T04:01:24.022Z,10.40
2023-06-19T04:02:23.956Z,10.00
2023-06-19T04:03:24.152Z,10.30
2023-06-19T04:04:23.822Z,10.50
2023-06-19T04:05:23.738Z,9.90
2023-06-19T04:06:23.722Z,9.80
2023-06-19T04:07:23.631Z,10.10
2023-06-19T04:08:23.548Z,10.40
2023-06-19T04:09:23.489Z,9.90
2023-06-19T04:10:23.786Z,9.90
2023-06-19T04:11:23.449Z,10.50
2023-06-19T04:12:23.370Z,9.70
2023-06-19T04:13:23.255Z,10.20
2023-06-19T04:14:23.159Z,9.60
2023-06-19T04:15:23.157Z,10.40
2023-06-19T04:16:23.136Z,10.40
2023-06-19T04:17:23.024Z,11.10
2023-06-19T04:18:22.917Z,11.40
2023-06-19T04:19:22.880Z,11.00
2023-06-19T04:20:23.065Z,10.90
2023-06-19T04:21:22.764Z,10.80
2023-06-19T04:22:22.738Z,10.40
2023-06-19T04:23:22.644Z,11.20
2023-06-19T04:24:22.635Z,11.10
2023-06-19T04:25:22.500Z,11.20
2023-06-19T04:26:22.463Z,12.00
2023-06-19T04:27:22.354Z,12.40
2023-06-19T04:28:22.342Z,11.90
2023-06-19T04:29:22.332Z,11.30
2023-06-19T04:30:22.806Z,11.10
2023-06-19T04:31:22.144Z,11.20
2023-06-19T04:32:22.131Z,11.40
2023-06-19T04:33:22.145Z,12.20
2023-06-19T04:34:22.012Z,10.90
2023-06-19T04:35:21.963Z,11.20
2023-06-19T04:36:21.822Z,12.50
2023-06-19T04:37:21.722Z,11.60
2023-06-19T04:38:21.658Z,11.00
2023-06-19T04:39:21.575Z,11.40
2023-06-19T04:40:21.863Z,11.80
2023-06-19T04:41:21.561Z,11.00
2023-06-19T04:42:21.443Z,11.60
2023-06-19T04:43:21.346Z,11.70
2023-06-19T04:44:21.825Z,11.50
2023-06-19T04:45:21.309Z,12.20
2023-06-19T04:46:21.270Z,12.00
2023-06-19T04:47:21.826Z,11.10
2023-06-19T04:48:21.098Z,11.10
2023-06-19T04:49:23.312Z,11.10
2023-06-19T04:50:21.500Z,11.50
2023-06-19T04:51:20.840Z,11.30
2023-06-19T04:52:20.825Z,12.10
2023-06-19T04:53:20.745Z,11.00
2023-06-19T04:54:20.686Z,10.70
2023-06-19T04:55:20.772Z,10.90
2023-06-19T04:56:20.559Z,11.00
2023-06-19T04:57:20.474Z,10.90
2023-06-19T04:58:20.413Z,10.80
2023-06-19T04:59:20.427Z,11.40
2023-06-19T05:00:20.840Z,11.00
2023-06-19T05:01:20.295Z,11.20
2023-06-19T05:02:20.233Z,11.50
2023-06-19T05:03:20.093Z,11.00
2023-06-19T05:04:20.136Z,10.90
2023-06-19T05:05:22.521Z,11.60
2023-06-19T05:06:19.945Z,11.60
2023-06-19T05:07:20.822Z,11.20
2023-06-19T05:08:19.817Z,10.60
2023-06-19T05:09:19.700Z,10.60
2023-06-19T05:10:19.692Z,10.60
2023-06-19T05:11:19.657Z,10.70
2023-06-19T05:12:19.607Z,11.10
2023-06-19T05:13:19.514Z,11.20
2023-06-19T05:14:19.449Z,11.50
2023-06-19T05:15:19.530Z,11.20
2023-06-19T05:16:19.569Z,11.50
2023-06-19T05:17:19.283Z,11.80
2023-06-19T05:18:19.241Z,11.80
2023-06-19T05:19:19.135Z,11.60
2023-06-19T05:20:19.076Z,11.70
2023-06-19T05:21:19.016Z,12.90
2023-06-19T05:22:18.990Z,12.30
2023-06-19T05:23:18.860Z,12.90
2023-06-19T05:24:18.903Z,12.00
2023-06-19T05:25:18.761Z,12.70
2023-06-19T05:26:18.676Z,12.10
2023-06-19T05:27:18.690Z,12.80
2023-06-19T05:28:18.569Z,12.10
2023-06-19T05:29:18.507Z,12.20
2023-06-19T05:30:18.517Z,12.50
2023-06-19T05:31:18.409Z,12.50
2023-06-19T05:32:18.360Z,12.80
2023-06-19T05:33:18.259Z,12.60
2023-06-19T05:34:18.188Z,12.60
2023-06-19T05:35:18.126Z,12.50
2023-06-19T05:36:19.822Z,12.00
2023-06-19T05:37:17.983Z,11.30
2023-06-19T05:38:19.656Z,12.20
2023-06-19T05:39:18.078Z,11.70
2023-06-19T05:40:18.350Z,11.70
2023-06-19T05:41:17.762Z,11.80
2023-06-19T05:42:18.319Z,13.30
2023-06-19T05:43:18.325Z,12.20
2023-06-19T05:44:17.564Z,12.00
2023-06-19T05:45:17.569Z,11.80
2023-06-19T05:46:17.476Z,12.10
2023-06-19T05:47:17.338Z,12.00
2023-06-19T05:48:17.292Z,11.70
2023-06-19T05:49:17.332Z,11.70
2023-06-19T05:50:18.784Z,11.90
2023-06-19T05:51:17.334Z,11.90
2023-06-19T05:52:17.159Z,11.60
2023-06-19T05:53:17.050Z,12.30
2023-06-19T05:54:16.982Z,11.60
2023-06-19T05:55:16.915Z,11.90
2023-06-19T05:56:16.976Z,11.20
2023-06-19T05:57:18.133Z,11.30
2023-06-19T05:58:17.493Z,11.20
2023-06-19T05:59:17.974Z,11.20
2023-06-19T06:00:16.599Z,11.90
2023-06-19T06:01:16.592Z,11.80
2023-06-19T06:02:16.433Z,11.70
2023-06-19T06:03:17.351Z,12.00
2023-06-19T06:04:16.376Z,10.70
2023-06-19T06:05:16.237Z,11.70
2023-06-19T06:06:16.225Z,11.60
2023-06-19T06:07:16.173Z,11.60
2023-06-19T06:08:16.061Z,10.70
2023-06-19T06:09:15.966Z,11.50
2023-06-19T06:10:15.908Z,10.70
2023-06-19T06:11:15.862Z,11.70
2023-06-19T06:12:15.827Z,11.40
2023-06-19T06:13:15.767Z,12.00
2023-06-19T06:14:15.671Z,11.50
2023-06-19T06:15:15.655Z,11.80
2023-06-19T06:16:15.681Z,10.90
2023-06-19T06:17:15.529Z,11.80
2023-06-19T06:18:15.427Z,11.90
2023-06-19T06:19:15.393Z,12.50
2023-06-19T06:20:15.307Z,11.70
2023-06-19T06:21:15.239Z,11.30
2023-06-19T06:22:15.151Z,11.90
2023-06-19T06:23:15.079Z,11.60
2023-06-19T06:24:15.056Z,12.00
2023-06-19T06:25:15.096Z,12.10
2023-06-19T06:26:14.912Z,12.50
2023-06-19T06:27:18.064Z,12.70
2023-06-19T06:28:14.829Z,11.80
2023-06-19T06:29:14.737Z,11.90
2023-06-19T06:30:14.775Z,11.50
2023-06-19T06:31:14.563Z,11.70
2023-06-19T06:32:14.548Z,11.60
2023-06-19T06:33:14.605Z,11.00
2023-06-19T06:34:14.437Z,12.90
2023-06-19T06:35:14.367Z,11.20
2023-06-19T06:36:25.649Z,10.90
2023-06-19T06:37:14.295Z,11.70
2023-06-19T06:38:14.219Z,12.10
2023-06-19T06:39:14.093Z,12.20
2023-06-19T06:40:14.023Z,11.40
2023-06-19T06:41:13.997Z,10.70
2023-06-19T06:42:13.912Z,11.00
2023-06-19T06:43:13.922Z,11.40
2023-06-19T06:44:13.839Z,10.50
2023-06-19T06:45:13.744Z,12.00
2023-06-19T06:46:13.716Z,11.20
2023-06-19T06:47:13.628Z,11.20
2023-06-19T06:48:13.653Z,11.20
2023-06-19T06:49:13.516Z,11.70
2023-06-19T06:50:13.425Z,12.00
2023-06-19T06:51:13.405Z,11.80
2023-06-19T06:52:14.512Z,11.30
2023-06-19T06:53:13.297Z,10.70
2023-06-19T06:54:13.185Z,11.30
2023-06-19T06:55:13.818Z,11.20
2023-06-19T06:56:14.325Z,11.70
2023-06-19T06:57:13.162Z,11.30
2023-06-19T06:58:12.945Z,11.40
2023-06-19T06:59:12.899Z,11.90
2023-06-19T07:00:16.896Z,11.50
2023-06-19T07:01:12.829Z,11.00
2023-06-19T07:02:12.990Z,11.30
2023-06-19T07:03:12.785Z,11.90
2023-06-19T07:04:12.580Z,11.60
2023-06-19T07:05:12.481Z,11.10
2023-06-19T07:06:14.788Z,11.60
2023-06-19T07:07:12.408Z,10.80
2023-06-19T07:08:13.329Z,11.10
2023-06-19T07:09:12.396Z,11.20
2023-06-19T07:10:13.293Z,11.10
2023-06-19T07:11:12.843Z,10.60
2023-06-19T07:12:12.122Z,11.30
2023-06-19T07:13:12.070Z,11.90
2023-06-19T07:14:11.933Z,11.00
2023-06-19T07:15:11.909Z,11.80
2023-06-19T07:16:11.859Z,10.50
2023-06-19T07:17:11.902Z,11.10
2023-06-19T07:18:11.827Z,11.50
2023-06-19T07:19:14.243Z,10.70
2023-06-19T07:20:13.788Z,11.10
2023-06-19T07:21:12.313Z,11.40
2023-06-19T07:22:12.612Z,11.40
2023-06-19T07:23:18.072Z,11.00
2023-06-19T07:24:11.403Z,11.30
2023-06-19T07:25:11.587Z,11.30
2023-06-19T07:26:11.218Z,11.20
2023-06-19T07:27:11.140Z,10.40
2023-06-19T07:28:11.073Z,11.10
2023-06-19T07:29:11.006Z,10.90
2023-06-19T07:30:10.999Z,10.70
2023-06-19T07:31:19.612Z,10.80
2023-06-19T07:32:10.856Z,10.70
2023-06-19T07:33:12.735Z,10.90
2023-06-19T07:34:10.823Z,10.80
2023-06-19T07:35:10.714Z,11.00
2023-06-19T07:36:12.288Z,10.80
2023-06-19T07:37:10.570Z,10.90
2023-06-19T07:38:11.171Z,10.20
2023-06-19T07:39:13.213Z,10.60
2023-06-19T07:40:11.438Z,11.00
2023-06-19T07:41:10.305Z,9.70
2023-06-19T07:42:10.232Z,10.20
2023-06-19T07:43:10.187Z,9.90
2023-06-19T07:44:10.166Z,10.50
2023-06-19T07:45:10.049Z,10.00
2023-06-19T07:46:10.085Z,10.20
2023-06-19T07:47:09.959Z,10.20
2023-06-19T07:48:09.908Z,10.80
2023-06-19T07:49:10.952Z,10.10
2023-06-19T07:50:10.734Z,10.00
2023-06-19T07:51:09.735Z,10.00
2023-06-19T07:52:10.918Z,9.50
2023-06-19T07:53:09.982Z,10.60
2023-06-19T07:54:17.827Z,10.60
2023-06-19T07:55:12.032Z,10.10
2023-06-19T07:56:13.902Z,9.80
2023-06-19T07:57:09.330Z,10.40
2023-06-19T07:58:09.316Z,10.50
2023-06-19T07:59:09.398Z,9.90
2023-06-19T08:00:09.171Z,10.40
2023-06-19T08:01:09.179Z,10.10
2023-06-19T08:02:09.150Z,10.20
2023-06-19T08:03:09.086Z,9.80
2023-06-19T08:04:08.891Z,9.90
2023-06-19T08:05:09.737Z,9.70
2023-06-19T08:06:08.801Z,9.90
2023-06-19T08:07:08.792Z,9.90
2023-06-19T08:08:09.289Z,10.00
2023-06-19T08:09:08.626Z,9.80
2023-06-19T08:10:14.226Z,9.80
2023-06-19T08:11:08.498Z,9.00
2023-06-19T08:12:09.092Z,9.60
2023-06-19T08:13:08.349Z,8.90
2023-06-19T08:14:08.321Z,9.70
2023-06-19T08:15:08.268Z,9.30
2023-06-19T08:16:08.226Z,9.20
2023-06-19T08:17:08.175Z,9.70
2023-06-19T08:18:08.128Z,9.30
2023-06-19T08:19:08.017Z,9.00
2023-06-19T08:20:08.797Z,9.40
2023-06-19T08:21:07.986Z,9.70
2023-06-19T08:22:07.812Z,8.80
2023-06-19T08:23:07.746Z,8.90
2023-06-19T08:24:07.819Z,9.30
2023-06-19T08:25:07.664Z,9.40
2023-06-19T08:26:07.588Z,9.00
2023-06-19T08:27:07.584Z,8.80
2023-06-19T08:28:07.486Z,8.90
2023-06-19T08:29:07.387Z,9.20
2023-06-19T08:30:07.373Z,9.00
2023-06-19T08:31:07.313Z,9.60
2023-06-19T08:32:07.274Z,9.00
2023-06-19T08:33:07.188Z,9.20
2023-06-19T08:34:07.155Z,8.40
2023-06-19T08:35:07.054Z,8.90
2023-06-19T08:36:08.334Z,9.50
2023-06-19T08:37:06.938Z,8.80
2023-06-19T08:38:06.817Z,8.60
2023-06-19T08:39:06.789Z,8.60
2023-06-19T08:40:06.757Z,9.20
2023-06-19T08:41:06.717Z,8.50
2023-06-19T08:42:06.682Z,9.20
2023-06-19T08:43:06.579Z,8.90
2023-06-19T08:44:06.542Z,8.80
2023-06-19T08:45:06.453Z,8.20
2023-06-19T08:46:06.462Z,9.00
2023-06-19T08:47:06.341Z,8.50
2023-06-19T08:48:06.325Z,8.40
2023-06-19T08:49:06.254Z,8.30
2023-06-19T08:50:06.171Z,8.30
2023-06-19T08:51:06.090Z,9.80
2023-06-19T08:52:06.108Z,7.80
2023-06-19T08:53:06.003Z,8.10
2023-06-19T08:54:05.976Z,7.90
2023-06-19T08:55:05.868Z,8.60
2023-06-19T08:56:06.030Z,8.50
2023-06-19T08:57:05.807Z,8.70
2023-06-19T08:58:05.678Z,8.30
2023-06-19T08:59:05.651Z,8.80
2023-06-19T09:00:06.756Z,8.70
2023-06-19T09:01:07.899Z,8.80
2023-06-19T09:02:05.514Z,9.10
2023-06-19T09:03:14.257Z,8.50
2023-06-19T09:04:06.756Z,8.20
2023-06-19T09:05:05.342Z,9.20
2023-06-19T09:06:05.981Z,8.70
2023-06-19T09:07:05.435Z,8.40
2023-06-19T09:08:05.139Z,8.50
2023-06-19T09:09:05.018Z,8.40
2023-06-19T09:10:05.254Z,8.00
2023-06-19T09:11:04.910Z,8.20
2023-06-19T09:12:04.849Z,8.40
2023-06-19T09:13:05.088Z,8.60
2023-06-19T09:14:04.747Z,8.00
2023-06-19T09:15:04.677Z,7.90
2023-06-19T09:16:04.660Z,8.10
2023-06-19T09:17:04.638Z,8.30
2023-06-19T09:18:04.526Z,7.30
2023-06-19T09:19:05.444Z,8.50
2023-06-19T09:20:04.461Z,7.30
2023-06-19T09:21:04.344Z,7.80
2023-06-19T09:22:04.301Z,7.30
2023-06-19T09:23:05.637Z,7.60
2023-06-19T09:24:04.238Z,6.60
2023-06-19T09:25:04.152Z,6.50
2023-06-19T09:26:04.044Z,6.80
2023-06-19T09:27:04.000Z,6.60
2023-06-19T09:28:03.960Z,5.80
2023-06-19T09:29:03.893Z,6.50
2023-06-19T09:30:03.818Z,6.00
2023-06-19T09:31:05.121Z,6.30
2023-06-19T09:32:03.703Z,6.60
2023-06-19T09:33:03.678Z,5.50
2023-06-19T09:34:03.661Z,5.70
2023-06-19T09:35:04.966Z,5.10
2023-06-19T09:36:05.187Z,5.70
2023-06-19T09:37:04.068Z,6.00
2023-06-19T09:38:03.876Z,5.90
2023-06-19T09:39:03.262Z,6.10
2023-06-19T09:40:03.369Z,6.30
2023-06-19T09:41:03.147Z,6.40
2023-06-19T09:42:03.049Z,6.20
2023-06-19T09:43:04.346Z,6.00
2023-06-19T09:44:02.949Z,6.00
2023-06-19T09:45:03.837Z,6.10
2023-06-19T09:46:02.972Z,5.80
2023-06-19T09:47:04.027Z,5.80
2023-06-19T09:48:02.740Z,5.90
2023-06-19T09:49:03.355Z,6.30
2023-06-19T09:50:02.650Z,6.10
2023-06-19T09:51:02.550Z,6.00
2023-06-19T09:52:02.639Z,5.10
2023-06-19T09:53:04.403Z,5.50
2023-06-19T09:54:02.485Z,5.70
2023-06-19T09:55:02.354Z,5.70
2023-06-19T09:56:02.312Z,5.90
2023-06-19T09:57:02.204Z,6.00
2023-06-19T09:58:02.123Z,5.70
2023-06-19T09:59:02.086Z,6.00
2023-06-19T10:00:02.767Z,5.80
2023-06-19T10:01:01.976Z,6.40
2023-06-19T10:02:01.950Z,6.30
2023-06-19T10:03:01.923Z,6.00
2023-06-19T10:04:01.818Z,6.00
2023-06-19T10:05:01.765Z,5.90
2023-06-19T10:06:01.719Z,6.20
2023-06-19T10:07:01.621Z,5.90
2023-06-19T10:08:01.564Z,6.00
2023-06-19T10:09:01.504Z,6.00
2023-06-19T10:10:01.438Z,6.50
2023-06-19T10:11:02.037Z,5.80
2023-06-19T10:12:02.848Z,6.00
2023-06-19T10:13:01.273Z,5.90
2023-06-19T10:14:01.248Z,6.00
2023-06-19T10:15:01.108Z,5.50
2023-06-19T10:16:01.081Z,5.80
2023-06-19T10:17:01.881Z,5.30
2023-06-19T10:18:01.131Z,6.00
2023-06-19T10:19:00.914Z,6.10
2023-06-19T10:20:00.888Z,5.70
2023-06-19T10:21:02.128Z,5.80
2023-06-19T10:22:01.598Z,5.60
2023-06-19T10:23:00.636Z,6.00
2023-06-19T10:24:00.703Z,5.90
2023-06-19T10:25:01.676Z,6.10
2023-06-19T10:26:01.193Z,6.40
2023-06-19T10:27:00.426Z,6.10
2023-06-19T10:28:00.408Z,6.00
2023-06-19T10:29:00.340Z,5.30
2023-06-19T10:30:10.300Z,5.70
2023-06-19T10:31:00.241Z,5.60
2023-06-19T10:32:00.174Z,6.00
2023-06-19T10:33:00.868Z,5.30
2023-06-19T10:34:00.846Z,5.80
2023-06-19T10:35:00.057Z,5.40
2023-06-19T10:35:59.937Z,5.70
2023-06-19T10:36:59.896Z,5.80
2023-06-19T10:37:59.857Z,5.80
2023-06-19T10:38:59.710Z,6.10
2023-06-19T10:39:59.675Z,5.60
2023-06-19T10:40:59.780Z,5.80
2023-06-19T10:41:59.551Z,5.40
2023-06-19T10:42:59.550Z,5.90
2023-06-19T10:43:59.437Z,5.80
2023-06-19T10:44:59.422Z,5.90
2023-06-19T10:45:59.400Z,6.20
2023-06-19T10:46:59.349Z,6.40
2023-06-19T10:47:59.260Z,5.70
2023-06-19T10:48:59.177Z,5.50
2023-06-19T10:49:59.074Z,5.60
2023-06-19T10:50:59.689Z,5.50
2023-06-19T10:51:59.075Z,5.50
2023-06-19T10:52:58.914Z,5.30
2023-06-19T10:53:58.890Z,5.60
2023-06-19T10:54:58.853Z,6.10
2023-06-19T10:55:59.362Z,6.00
2023-06-19T10:56:58.665Z,5.70
2023-06-19T10:57:58.666Z,5.90
2023-06-19T10:58:58.561Z,5.70
2023-06-19T10:59:58.511Z,5.70
2023-06-19T11:01:06.734Z,5.70
2023-06-19T11:01:58.441Z,6.00
2023-06-19T11:02:58.509Z,5.60
2023-06-19T11:03:58.333Z,6.20
2023-06-19T11:04:58.206Z,5.40
2023-06-19T11:05:58.145Z,5.70
2023-06-19T11:06:58.264Z,6.30
2023-06-19T11:07:58.067Z,5.30
2023-06-19T11:08:58.813Z,6.00
2023-06-19T11:09:57.945Z,5.90
2023-06-19T11:10:57.884Z,5.50
2023-06-19T11:11:57.818Z,5.80
2023-06-19T11:12:57.736Z,6.20
2023-06-19T11:13:57.727Z,6.10
2023-06-19T11:14:57.737Z,5.80
2023-06-19T11:15:57.969Z,6.10
2023-06-19T11:16:58.918Z,5.90
2023-06-19T11:17:57.568Z,5.80
2023-06-19T11:18:57.551Z,5.90
2023-06-19T11:19:57.353Z,5.80
2023-06-19T11:20:57.302Z,5.90
2023-06-19T11:21:57.250Z,5.30
2023-06-19T11:22:57.170Z,6.20
2023-06-19T11:23:57.179Z,5.50
2023-06-19T11:24:57.044Z,5.80
2023-06-19T11:25:57.045Z,5.70
2023-06-19T11:26:57.006Z,5.70
2023-06-19T11:27:56.843Z,5.30
2023-06-19T11:28:56.952Z,5.30
2023-06-19T11:29:56.735Z,5.60
2023-06-19T11:30:56.710Z,5.60
